sensor_id;sensor_type;location;lat;lon;timestamp;P1;durP1;ratioP1;P2;durP2;ratioP2
49340;SDS011;35209;51.050;13.678;2023-09-07T00:03:59;5.13;;;4.63;;
49340;SDS011;35209;51.050;13.678;2023-09-07T00:09:02;4.47;;;4.15;;
49340;SDS011;35209;51.050;13.678;2023-09-07T00:14:07;5.63;;;5.13;;
49340;SDS011;35209;51.050;13.678;2023-09-07T00:19:09;4.97;;;4.57;;
49340;SDS011;35209;51.050;13.678;2023-09-07T00:24:10;5.20;;;4.80;;
49340;SDS011;35209;51.050;13.678;2023-09-07T00:29:12;5.30;;;4.82;;
49340;SDS011;35209;51.050;13.678;2023-09-07T00:34:14;5.68;;;5.28;;
49340;SDS011;35209;51.050;13.678;2023-09-07T00:39:16;5.15;;;4.78;;
49340;SDS011;35209;51.050;13.678;2023-09-07T00:44:17;4.47;;;4.18;;
49340;SDS011;35209;51.050;13.678;2023-09-07T00:49:19;4.43;;;4.13;;
49340;SDS011;35209;51.050;13.678;2023-09-07T00:54:22;4.97;;;4.57;;
49340;SDS011;35209;51.050;13.678;2023-09-07T00:59:24;4.97;;;4.57;;
49340;SDS011;35209;51.050;13.678;2023-09-07T01:04:26;4.32;;;4.03;;
49340;SDS011;35209;51.050;13.678;2023-09-07T01:09:28;4.95;;;4.47;;
49340;SDS011;35209;51.050;13.678;2023-09-07T01:14:33;5.90;;;5.40;;
49340;SDS011;35209;51.050;13.678;2023-09-07T01:19:35;5.45;;;5.05;;
49340;SDS011;35209;51.050;13.678;2023-09-07T01:24:37;5.47;;;5.03;;
49340;SDS011;35209;51.050;13.678;2023-09-07T01:29:40;5.70;;;5.20;;
49340;SDS011;35209;51.050;13.678;2023-09-07T01:34:42;5.93;;;5.43;;
49340;SDS011;35209;51.050;13.678;2023-09-07T01:39:44;5.63;;;5.22;;
49340;SDS011;35209;51.050;13.678;2023-09-07T01:44:46;5.55;;;5.15;;
49340;SDS011;35209;51.050;13.678;2023-09-07T01:49:48;5.75;;;5.25;;
49340;SDS011;35209;51.050;13.678;2023-09-07T01:54:50;5.40;;;4.90;;
49340;SDS011;35209;51.050;13.678;2023-09-07T01:59:52;5.90;;;5.32;;
49340;SDS011;35209;51.050;13.678;2023-09-07T02:04:54;5.68;;;5.10;;
49340;SDS011;35209;51.050;13.678;2023-09-07T02:09:56;5.72;;;5.32;;
49340;SDS011;35209;51.050;13.678;2023-09-07T02:15:00;5.43;;;5.03;;
49340;SDS011;35209;51.050;13.678;2023-09-07T02:20:03;6.05;;;5.55;;
49340;SDS011;35209;51.050;13.678;2023-09-07T02:25:12;5.97;;;5.40;;
49340;SDS011;35209;51.050;13.678;2023-09-07T02:30:14;5.35;;;4.95;;
49340;SDS011;35209;51.050;13.678;2023-09-07T02:35:16;6.00;;;5.57;;
49340;SDS011;35209;51.050;13.678;2023-09-07T02:40:18;5.90;;;5.50;;
49340;SDS011;35209;51.050;13.678;2023-09-07T02:45:20;6.43;;;5.53;;
49340;SDS011;35209;51.050;13.678;2023-09-07T02:50:21;6.93;;;6.32;;
49340;SDS011;35209;51.050;13.678;2023-09-07T02:55:24;5.88;;;5.47;;
49340;SDS011;35209;51.050;13.678;2023-09-07T03:00:26;6.45;;;5.85;;
49340;SDS011;35209;51.050;13.678;2023-09-07T03:05:27;6.05;;;5.55;;
49340;SDS011;35209;51.050;13.678;2023-09-07T03:10:30;6.32;;;5.72;;
49340;SDS011;35209;51.050;13.678;2023-09-07T03:15:33;6.00;;;5.40;;
49340;SDS011;35209;51.050;13.678;2023-09-07T03:20:36;6.13;;;5.63;;
49340;SDS011;35209;51.050;13.678;2023-09-07T03:25:40;6.55;;;6.05;;
49340;SDS011;35209;51.050;13.678;2023-09-07T03:30:42;6.50;;;6.00;;
49340;SDS011;35209;51.050;13.678;2023-09-07T03:35:44;6.53;;;6.00;;
49340;SDS011;35209;51.050;13.678;2023-09-07T03:40:46;6.15;;;5.65;;
49340;SDS011;35209;51.050;13.678;2023-09-07T03:45:49;5.70;;;5.30;;
49340;SDS011;35209;51.050;13.678;2023-09-07T03:50:51;6.75;;;6.15;;
49340;SDS011;35209;51.050;13.678;2023-09-07T03:55:53;6.60;;;6.00;;
49340;SDS011;35209;51.050;13.678;2023-09-07T04:00:55;6.70;;;6.13;;
49340;SDS011;35209;51.050;13.678;2023-09-07T04:06:02;5.90;;;5.50;;
49340;SDS011;35209;51.050;13.678;2023-09-07T04:11:05;7.68;;;7.07;;
49340;SDS011;35209;51.050;13.678;2023-09-07T04:16:08;6.32;;;5.72;;
49340;SDS011;35209;51.050;13.678;2023-09-07T04:21:11;6.57;;;6.05;;
49340;SDS011;35209;51.050;13.678;2023-09-07T04:26:14;7.43;;;6.82;;
49340;SDS011;35209;51.050;13.678;2023-09-07T04:31:16;6.13;;;5.63;;
49340;SDS011;35209;51.050;13.678;2023-09-07T04:36:18;7.88;;;7.13;;
49340;SDS011;35209;51.050;13.678;2023-09-07T04:41:21;7.32;;;6.40;;
49340;SDS011;35209;51.050;13.678;2023-09-07T04:46:24;7.18;;;6.32;;
49340;SDS011;35209;51.050;13.678;2023-09-07T04:51:27;6.45;;;5.82;;
49340;SDS011;35209;51.050;13.678;2023-09-07T04:56:29;6.32;;;5.78;;
49340;SDS011;35209;51.050;13.678;2023-09-07T05:01:31;7.53;;;6.93;;
49340;SDS011;35209;51.050;13.678;2023-09-07T05:06:34;6.50;;;5.93;;
49340;SDS011;35209;51.050;13.678;2023-09-07T05:11:40;7.57;;;6.97;;
49340;SDS011;35209;51.050;13.678;2023-09-07T05:16:42;6.90;;;6.40;;
49340;SDS011;35209;51.050;13.678;2023-09-07T05:21:46;7.78;;;6.70;;
49340;SDS011;35209;51.050;13.678;2023-09-07T05:26:48;7.88;;;7.22;;
49340;SDS011;35209;51.050;13.678;2023-09-07T05:31:52;8.27;;;7.57;;
49340;SDS011;35209;51.050;13.678;2023-09-07T05:36:54;7.57;;;6.88;;
49340;SDS011;35209;51.050;13.678;2023-09-07T05:41:56;7.82;;;7.13;;
49340;SDS011;35209;51.050;13.678;2023-09-07T05:46:58;7.38;;;6.70;;
49340;SDS011;35209;51.050;13.678;2023-09-07T05:52:01;7.78;;;6.95;;
49340;SDS011;35209;51.050;13.678;2023-09-07T05:57:03;7.03;;;6.40;;
49340;SDS011;35209;51.050;13.678;2023-09-07T06:02:07;6.53;;;6.03;;
49340;SDS011;35209;51.050;13.678;2023-09-07T06:07:09;6.03;;;5.45;;
49340;SDS011;35209;51.050;13.678;2023-09-07T06:12:11;5.45;;;5.05;;
49340;SDS011;35209;51.050;13.678;2023-09-07T06:17:15;4.70;;;4.32;;
49340;SDS011;35209;51.050;13.678;2023-09-07T06:22:18;6.25;;;4.93;;
49340;SDS011;35209;51.050;13.678;2023-09-07T06:27:20;5.25;;;4.85;;
49340;SDS011;35209;51.050;13.678;2023-09-07T06:32:22;6.13;;;5.10;;
49340;SDS011;35209;51.050;13.678;2023-09-07T06:37:24;4.55;;;4.18;;
49340;SDS011;35209;51.050;13.678;2023-09-07T06:42:26;5.13;;;4.63;;
49340;SDS011;35209;51.050;13.678;2023-09-07T06:47:36;7.25;;;4.68;;
49340;SDS011;35209;51.050;13.678;2023-09-07T06:52:39;5.13;;;4.43;;
49340;SDS011;35209;51.050;13.678;2023-09-07T06:57:42;3.97;;;3.63;;
49340;SDS011;35209;51.050;13.678;2023-09-07T07:02:43;4.35;;;3.65;;
49340;SDS011;35209;51.050;13.678;2023-09-07T07:07:46;4.68;;;3.30;;
49340;SDS011;35209;51.050;13.678;2023-09-07T07:12:48;3.53;;;3.25;;
49340;SDS011;35209;51.050;13.678;2023-09-07T07:17:51;5.70;;;3.67;;
49340;SDS011;35209;51.050;13.678;2023-09-07T07:22:53;4.15;;;2.90;;
49340;SDS011;35209;51.050;13.678;2023-09-07T07:27:55;4.43;;;3.70;;
49340;SDS011;35209;51.050;13.678;2023-09-07T07:32:57;3.80;;;3.13;;
49340;SDS011;35209;51.050;13.678;2023-09-07T07:37:59;4.10;;;3.70;;
49340;SDS011;35209;51.050;13.678;2023-09-07T07:43:02;5.93;;;3.50;;
49340;SDS011;35209;51.050;13.678;2023-09-07T07:48:04;4.15;;;3.75;;
49340;SDS011;35209;51.050;13.678;2023-09-07T07:53:11;4.38;;;3.70;;
49340;SDS011;35209;51.050;13.678;2023-09-07T07:58:14;3.95;;;3.65;;
49340;SDS011;35209;51.050;13.678;2023-09-07T08:03:16;3.25;;;3.00;;
49340;SDS011;35209;51.050;13.678;2023-09-07T08:08:18;3.45;;;3.15;;
49340;SDS011;35209;51.050;13.678;2023-09-07T08:13:21;5.55;;;3.00;;
49340;SDS011;35209;51.050;13.678;2023-09-07T08:18:24;3.55;;;3.25;;
49340;SDS011;35209;51.050;13.678;2023-09-07T08:23:26;3.25;;;2.80;;
49340;SDS011;35209;51.050;13.678;2023-09-07T08:28:29;3.35;;;3.05;;
49340;SDS011;35209;51.050;13.678;2023-09-07T08:33:32;6.03;;;3.47;;
49340;SDS011;35209;51.050;13.678;2023-09-07T08:38:37;2.97;;;2.57;;
49340;SDS011;35209;51.050;13.678;2023-09-07T08:43:42;3.03;;;2.83;;
49340;SDS011;35209;51.050;13.678;2023-09-07T08:48:52;3.20;;;2.90;;
49340;SDS011;35209;51.050;13.678;2023-09-07T08:53:58;3.95;;;2.70;;
49340;SDS011;35209;51.050;13.678;2023-09-07T08:59:00;3.15;;;2.95;;
49340;SDS011;35209;51.050;13.678;2023-09-07T09:04:04;3.47;;;2.72;;
49340;SDS011;35209;51.050;13.678;2023-09-07T09:09:07;3.08;;;2.88;;
49340;SDS011;35209;51.050;13.678;2023-09-07T09:14:09;3.70;;;2.60;;
49340;SDS011;35209;51.050;13.678;2023-09-07T09:19:11;3.63;;;2.80;;
49340;SDS011;35209;51.050;13.678;2023-09-07T09:24:12;2.75;;;2.45;;
49340;SDS011;35209;51.050;13.678;2023-09-07T09:29:15;2.30;;;2.10;;
49340;SDS011;35209;51.050;13.678;2023-09-07T09:34:18;3.55;;;2.15;;
49340;SDS011;35209;51.050;13.678;2023-09-07T09:39:21;2.85;;;2.13;;
49340;SDS011;35209;51.050;13.678;2023-09-07T09:44:25;3.45;;;2.40;;
49340;SDS011;35209;51.050;13.678;2023-09-07T09:49:30;2.70;;;2.38;;
49340;SDS011;35209;51.050;13.678;2023-09-07T09:54:34;2.67;;;2.08;;
49340;SDS011;35209;51.050;13.678;2023-09-07T09:59:36;4.00;;;2.70;;
49340;SDS011;35209;51.050;13.678;2023-09-07T10:04:39;3.67;;;2.25;;
49340;SDS011;35209;51.050;13.678;2023-09-07T10:09:41;3.13;;;2.65;;
49340;SDS011;35209;51.050;13.678;2023-09-07T10:14:42;2.50;;;2.30;;
49340;SDS011;35209;51.050;13.678;2023-09-07T10:19:46;2.63;;;2.30;;
49340;SDS011;35209;51.050;13.678;2023-09-07T10:24:56;2.20;;;2.00;;
49340;SDS011;35209;51.050;13.678;2023-09-07T10:29:59;2.85;;;2.15;;
49340;SDS011;35209;51.050;13.678;2023-09-07T10:35:01;4.15;;;2.20;;
49340;SDS011;35209;51.050;13.678;2023-09-07T10:40:20;2.53;;;2.33;;
49340;SDS011;35209;51.050;13.678;2023-09-07T10:45:23;2.42;;;2.22;;
49340;SDS011;35209;51.050;13.678;2023-09-07T10:50:25;2.70;;;2.50;;
49340;SDS011;35209;51.050;13.678;2023-09-07T10:55:27;3.45;;;2.35;;
49340;SDS011;35209;51.050;13.678;2023-09-07T11:00:29;2.60;;;1.95;;
49340;SDS011;35209;51.050;13.678;2023-09-07T11:05:31;3.58;;;2.28;;
49340;SDS011;35209;51.050;13.678;2023-09-07T11:10:38;3.75;;;2.50;;
49340;SDS011;35209;51.050;13.678;2023-09-07T11:15:40;5.10;;;2.60;;
49340;SDS011;35209;51.050;13.678;2023-09-07T11:20:44;2.10;;;1.90;;
49340;SDS011;35209;51.050;13.678;2023-09-07T11:25:48;2.65;;;2.20;;
49340;SDS011;35209;51.050;13.678;2023-09-07T11:30:54;4.13;;;2.75;;
49340;SDS011;35209;51.050;13.678;2023-09-07T11:35:56;2.60;;;2.40;;
49340;SDS011;35209;51.050;13.678;2023-09-07T11:40:59;2.78;;;2.13;;
49340;SDS011;35209;51.050;13.678;2023-09-07T11:46:00;2.97;;;2.65;;
49340;SDS011;35209;51.050;13.678;2023-09-07T11:51:03;2.30;;;2.10;;
49340;SDS011;35209;51.050;13.678;2023-09-07T11:56:04;2.45;;;2.00;;
49340;SDS011;35209;51.050;13.678;2023-09-07T12:01:06;2.17;;;1.98;;
49340;SDS011;35209;51.050;13.678;2023-09-07T12:06:08;2.30;;;1.92;;
49340;SDS011;35209;51.050;13.678;2023-09-07T12:11:11;3.20;;;2.30;;
49340;SDS011;35209;51.050;13.678;2023-09-07T12:16:13;2.08;;;1.85;;
49340;SDS011;35209;51.050;13.678;2023-09-07T12:21:15;2.53;;;2.33;;
49340;SDS011;35209;51.050;13.678;2023-09-07T12:26:16;2.50;;;2.15;;
49340;SDS011;35209;51.050;13.678;2023-09-07T12:31:20;1.95;;;1.75;;
49340;SDS011;35209;51.050;13.678;2023-09-07T12:36:22;2.47;;;1.90;;
49340;SDS011;35209;51.050;13.678;2023-09-07T12:41:24;3.58;;;2.35;;
49340;SDS011;35209;51.050;13.678;2023-09-07T12:46:26;3.00;;;2.15;;
49340;SDS011;35209;51.050;13.678;2023-09-07T12:51:28;1.90;;;1.80;;
49340;SDS011;35209;51.050;13.678;2023-09-07T12:56:30;3.65;;;1.67;;
49340;SDS011;35209;51.050;13.678;2023-09-07T13:01:32;2.63;;;1.95;;
49340;SDS011;35209;51.050;13.678;2023-09-07T13:06:34;2.25;;;1.88;;
49340;SDS011;35209;51.050;13.678;2023-09-07T13:11:36;1.75;;;1.65;;
49340;SDS011;35209;51.050;13.678;2023-09-07T13:16:38;2.08;;;1.80;;
49340;SDS011;35209;51.050;13.678;2023-09-07T13:21:40;2.30;;;2.00;;
49340;SDS011;35209;51.050;13.678;2023-09-07T13:26:42;2.20;;;1.67;;
49340;SDS011;35209;51.050;13.678;2023-09-07T13:31:48;2.45;;;2.25;;
49340;SDS011;35209;51.050;13.678;2023-09-07T13:36:51;2.17;;;2.03;;
49340;SDS011;35209;51.050;13.678;2023-09-07T13:41:52;2.20;;;1.70;;
49340;SDS011;35209;51.050;13.678;2023-09-07T13:46:54;2.28;;;1.60;;
49340;SDS011;35209;51.050;13.678;2023-09-07T13:51:57;3.22;;;1.88;;
49340;SDS011;35209;51.050;13.678;2023-09-07T13:56:59;2.10;;;1.80;;
49340;SDS011;35209;51.050;13.678;2023-09-07T14:02:00;2.85;;;1.77;;
49340;SDS011;35209;51.050;13.678;2023-09-07T14:07:02;2.95;;;1.63;;
49340;SDS011;35209;51.050;13.678;2023-09-07T14:12:05;1.55;;;1.45;;
49340;SDS011;35209;51.050;13.678;2023-09-07T14:17:07;2.03;;;1.60;;
49340;SDS011;35209;51.050;13.678;2023-09-07T14:22:08;1.95;;;1.85;;
49340;SDS011;35209;51.050;13.678;2023-09-07T14:27:10;1.90;;;1.80;;
49340;SDS011;35209;51.050;13.678;2023-09-07T14:32:12;2.20;;;1.95;;
49340;SDS011;35209;51.050;13.678;2023-09-07T14:37:14;2.58;;;2.38;;
49340;SDS011;35209;51.050;13.678;2023-09-07T14:42:16;1.58;;;1.48;;
49340;SDS011;35209;51.050;13.678;2023-09-07T14:47:20;1.80;;;1.50;;
49340;SDS011;35209;51.050;13.678;2023-09-07T14:52:26;1.50;;;1.40;;
49340;SDS011;35209;51.050;13.678;2023-09-07T14:57:28;1.80;;;1.60;;
49340;SDS011;35209;51.050;13.678;2023-09-07T15:02:30;2.75;;;1.60;;
49340;SDS011;35209;51.050;13.678;2023-09-07T15:07:32;1.63;;;1.50;;
49340;SDS011;35209;51.050;13.678;2023-09-07T15:12:34;2.28;;;1.52;;
49340;SDS011;35209;51.050;13.678;2023-09-07T15:17:37;2.47;;;1.83;;
49340;SDS011;35209;51.050;13.678;2023-09-07T15:22:40;2.00;;;1.50;;
49340;SDS011;35209;51.050;13.678;2023-09-07T15:27:45;2.05;;;1.70;;
49340;SDS011;35209;51.050;13.678;2023-09-07T15:32:47;2.65;;;1.60;;
49340;SDS011;35209;51.050;13.678;2023-09-07T15:37:49;1.90;;;1.65;;
49340;SDS011;35209;51.050;13.678;2023-09-07T15:42:51;1.88;;;1.40;;
49340;SDS011;35209;51.050;13.678;2023-09-07T15:47:54;2.08;;;1.50;;
49340;SDS011;35209;51.050;13.678;2023-09-07T15:52:56;2.55;;;2.35;;
49340;SDS011;35209;51.050;13.678;2023-09-07T15:57:58;4.30;;;3.13;;
49340;SDS011;35209;51.050;13.678;2023-09-07T16:02:59;1.50;;;1.40;;
49340;SDS011;35209;51.050;13.678;2023-09-07T16:08:01;3.33;;;1.90;;
49340;SDS011;35209;51.050;13.678;2023-09-07T16:13:03;2.40;;;1.60;;
49340;SDS011;35209;51.050;13.678;2023-09-07T16:18:05;2.55;;;1.60;;
49340;SDS011;35209;51.050;13.678;2023-09-07T16:23:07;2.90;;;2.55;;
49340;SDS011;35209;51.050;13.678;2023-09-07T16:28:11;2.20;;;1.90;;
49340;SDS011;35209;51.050;13.678;2023-09-07T16:33:13;6.95;;;6.43;;
49340;SDS011;35209;51.050;13.678;2023-09-07T16:38:15;3.20;;;2.90;;
49340;SDS011;35209;51.050;13.678;2023-09-07T16:43:17;2.88;;;2.67;;
49340;SDS011;35209;51.050;13.678;2023-09-07T16:48:18;2.03;;;1.83;;
49340;SDS011;35209;51.050;13.678;2023-09-07T16:53:21;3.47;;;2.17;;
49340;SDS011;35209;51.050;13.678;2023-09-07T16:58:23;3.13;;;2.58;;
49340;SDS011;35209;51.050;13.678;2023-09-07T17:03:45;3.28;;;2.63;;
49340;SDS011;35209;51.050;13.678;2023-09-07T17:08:47;3.28;;;2.97;;
49340;SDS011;35209;51.050;13.678;2023-09-07T17:13:49;3.20;;;2.30;;
49340;SDS011;35209;51.050;13.678;2023-09-07T17:19:02;2.75;;;2.28;;
49340;SDS011;35209;51.050;13.678;2023-09-07T17:24:07;4.70;;;2.20;;
49340;SDS011;35209;51.050;13.678;2023-09-07T17:29:09;3.75;;;2.63;;
49340;SDS011;35209;51.050;13.678;2023-09-07T17:34:11;2.80;;;2.05;;
49340;SDS011;35209;51.050;13.678;2023-09-07T17:39:13;3.35;;;2.67;;
49340;SDS011;35209;51.050;13.678;2023-09-07T17:44:14;2.83;;;2.20;;
49340;SDS011;35209;51.050;13.678;2023-09-07T17:49:16;2.60;;;2.17;;
49340;SDS011;35209;51.050;13.678;2023-09-07T17:54:18;3.20;;;2.38;;
49340;SDS011;35209;51.050;13.678;2023-09-07T17:59:20;2.70;;;2.10;;
49340;SDS011;35209;51.050;13.678;2023-09-07T18:04:22;2.75;;;2.55;;
49340;SDS011;35209;51.050;13.678;2023-09-07T18:15:28;3.55;;;2.75;;
49340;SDS011;35209;51.050;13.678;2023-09-07T18:20:30;4.80;;;2.80;;
49340;SDS011;35209;51.050;13.678;2023-09-07T18:25:35;5.82;;;2.60;;
49340;SDS011;35209;51.050;13.678;2023-09-07T18:30:41;3.55;;;2.75;;
49340;SDS011;35209;51.050;13.678;2023-09-07T18:35:44;2.80;;;2.40;;
49340;SDS011;35209;51.050;13.678;2023-09-07T18:40:45;3.33;;;3.03;;
49340;SDS011;35209;51.050;13.678;2023-09-07T18:45:47;3.28;;;2.63;;
49340;SDS011;35209;51.050;13.678;2023-09-07T18:50:58;3.10;;;2.80;;
49340;SDS011;35209;51.050;13.678;2023-09-07T18:56:01;3.80;;;2.97;;
49340;SDS011;35209;51.050;13.678;2023-09-07T19:01:11;3.75;;;3.45;;
49340;SDS011;35209;51.050;13.678;2023-09-07T19:06:17;3.40;;;3.10;;
49340;SDS011;35209;51.050;13.678;2023-09-07T19:11:19;3.10;;;2.80;;
49340;SDS011;35209;51.050;13.678;2023-09-07T19:16:21;6.47;;;2.70;;
49340;SDS011;35209;51.050;13.678;2023-09-07T19:21:27;3.58;;;3.08;;
49340;SDS011;35209;51.050;13.678;2023-09-07T19:31:37;3.17;;;2.55;;
49340;SDS011;35209;51.050;13.678;2023-09-07T19:36:39;3.55;;;3.20;;
49340;SDS011;35209;51.050;13.678;2023-09-07T19:41:41;3.85;;;3.40;;
49340;SDS011;35209;51.050;13.678;2023-09-07T19:46:43;3.78;;;3.00;;
49340;SDS011;35209;51.050;13.678;2023-09-07T19:51:45;3.83;;;3.53;;
49340;SDS011;35209;51.050;13.678;2023-09-07T19:56:49;4.60;;;3.50;;
49340;SDS011;35209;51.050;13.678;2023-09-07T20:06:55;4.22;;;3.88;;
49340;SDS011;35209;51.050;13.678;2023-09-07T20:11:58;6.00;;;3.53;;
49340;SDS011;35209;51.050;13.678;2023-09-07T20:17:08;4.22;;;3.58;;
49340;SDS011;35209;51.050;13.678;2023-09-07T20:22:28;4.05;;;3.67;;
49340;SDS011;35209;51.050;13.678;2023-09-07T20:27:33;3.90;;;3.53;;
49340;SDS011;35209;51.050;13.678;2023-09-07T20:32:39;4.32;;;4.03;;
49340;SDS011;35209;51.050;13.678;2023-09-07T20:37:41;5.18;;;4.15;;
49340;SDS011;35209;51.050;13.678;2023-09-07T20:42:43;4.00;;;3.70;;
49340;SDS011;35209;51.050;13.678;2023-09-07T20:47:45;4.07;;;3.42;;
49340;SDS011;35209;51.050;13.678;2023-09-07T20:52:49;4.70;;;4.18;;
49340;SDS011;35209;51.050;13.678;2023-09-07T20:57:51;4.70;;;3.50;;
49340;SDS011;35209;51.050;13.678;2023-09-07T21:02:53;3.65;;;3.25;;
49340;SDS011;35209;51.050;13.678;2023-09-07T21:07:59;4.55;;;4.15;;
49340;SDS011;35209;51.050;13.678;2023-09-07T21:13:01;5.93;;;3.97;;
49340;SDS011;35209;51.050;13.678;2023-09-07T21:18:03;4.13;;;3.72;;
49340;SDS011;35209;51.050;13.678;2023-09-07T21:23:07;4.47;;;4.07;;
49340;SDS011;35209;51.050;13.678;2023-09-07T21:28:11;4.78;;;3.70;;
49340;SDS011;35209;51.050;13.678;2023-09-07T21:33:18;4.75;;;4.20;;
49340;SDS011;35209;51.050;13.678;2023-09-07T21:38:20;6.47;;;3.95;;
49340;SDS011;35209;51.050;13.678;2023-09-07T21:43:22;9.15;;;3.95;;
49340;SDS011;35209;51.050;13.678;2023-09-07T21:48:25;4.75;;;3.92;;
49340;SDS011;35209;51.050;13.678;2023-09-07T21:53:29;4.97;;;4.47;;
49340;SDS011;35209;51.050;13.678;2023-09-07T21:58:31;4.70;;;4.13;;
49340;SDS011;35209;51.050;13.678;2023-09-07T22:03:33;4.38;;;3.83;;
49340;SDS011;35209;51.050;13.678;2023-09-07T22:08:35;5.03;;;4.60;;
49340;SDS011;35209;51.050;13.678;2023-09-07T22:13:38;4.95;;;4.45;;
49340;SDS011;35209;51.050;13.678;2023-09-07T22:18:40;5.13;;;4.60;;
49340;SDS011;35209;51.050;13.678;2023-09-07T22:23:42;5.20;;;4.47;;
49340;SDS011;35209;51.050;13.678;2023-09-07T22:28:44;4.90;;;4.50;;
49340;SDS011;35209;51.050;13.678;2023-09-07T22:33:46;5.22;;;4.82;;
49340;SDS011;35209;51.050;13.678;2023-09-07T22:38:48;5.13;;;4.70;;
49340;SDS011;35209;51.050;13.678;2023-09-07T22:43:51;4.25;;;3.85;;
49340;SDS011;35209;51.050;13.678;2023-09-07T22:48:53;5.38;;;4.85;;
49340;SDS011;35209;51.050;13.678;2023-09-07T22:53:55;6.18;;;5.28;;
49340;SDS011;35209;51.050;13.678;2023-09-07T22:58:58;5.78;;;5.28;;
49340;SDS011;35209;51.050;13.678;2023-09-07T23:04:00;10.35;;;4.93;;
49340;SDS011;35209;51.050;13.678;2023-09-07T23:09:02;5.85;;;5.30;;
49340;SDS011;35209;51.050;13.678;2023-09-07T23:14:08;5.20;;;4.80;;
49340;SDS011;35209;51.050;13.678;2023-09-07T23:19:10;5.70;;;5.15;;
49340;SDS011;35209;51.050;13.678;2023-09-07T23:24:12;6.25;;;5.65;;
49340;SDS011;35209;51.050;13.678;2023-09-07T23:29:14;5.72;;;5.18;;
49340;SDS011;35209;51.050;13.678;2023-09-07T23:34:16;8.40;;;5.93;;
49340;SDS011;35209;51.050;13.678;2023-09-07T23:39:18;6.00;;;5.50;;
49340;SDS011;35209;51.050;13.678;2023-09-07T23:44:20;6.63;;;6.03;;
49340;SDS011;35209;51.050;13.678;2023-09-07T23:49:22;6.30;;;5.80;;
49340;SDS011;35209;51.050;13.678;2023-09-07T23:54:25;5.85;;;5.35;;
49340;SDS011;35209;51.050;13.678;2023-09-07T23:59:29;5.30;;;4.80;;
